Terminal Aerodrome Forecast
Issued by NWS Grand Forks, ND

Home | Current Version | Previous Version | Text Only | Print | Product List | Glossary On
Versions: 1 2 3 4 5 6 7 8 9 10 11 12 13 14 15 16 17 18
000
FTUS43 KFGF 242332
TAFGFK
TAF
KGFK 242332Z 2500/2524 VRB06KT 2SM -SN OVC018
      TEMPO 2500/2502 3/4SM -SN BKN012
     FM250200 VRB04KT 4SM -SN OVC025
      TEMPO 2502/2504 1SM -SN BKN015
     FM250800 VRB05KT P6SM BKN025
     FM251700 28013G18KT P6SM BKN035=

USA.gov is the U.S. government's official web portal to all federal, state and local government web resources and services.